sensor_id;sensor_type;location;lat;lon;timestamp;P1;durP1;ratioP1;P2;durP2;ratioP2
48578;SDS011;34357;51.948;6.132;2023-05-02T00:01:27;43.15;;;25.42;;
48578;SDS011;34357;51.948;6.132;2023-05-02T00:03:53;38.50;;;23.13;;
48578;SDS011;34357;51.948;6.132;2023-05-02T00:06:19;36.35;;;22.77;;
48578;SDS011;34357;51.948;6.132;2023-05-02T00:08:45;41.78;;;24.30;;
48578;SDS011;34357;51.948;6.132;2023-05-02T00:11:12;39.00;;;24.05;;
48578;SDS011;34357;51.948;6.132;2023-05-02T00:13:38;38.60;;;23.33;;
48578;SDS011;34357;51.948;6.132;2023-05-02T00:16:04;37.15;;;21.15;;
48578;SDS011;34357;51.948;6.132;2023-05-02T00:18:30;31.23;;;20.48;;
48578;SDS011;34357;51.948;6.132;2023-05-02T00:20:55;37.42;;;22.02;;
48578;SDS011;34357;51.948;6.132;2023-05-02T00:23:21;34.25;;;20.58;;
48578;SDS011;34357;51.948;6.132;2023-05-02T00:25:48;29.35;;;17.60;;
48578;SDS011;34357;51.948;6.132;2023-05-02T00:28:14;28.25;;;17.38;;
48578;SDS011;34357;51.948;6.132;2023-05-02T00:30:43;26.63;;;17.63;;
48578;SDS011;34357;51.948;6.132;2023-05-02T00:33:10;29.33;;;17.40;;
48578;SDS011;34357;51.948;6.132;2023-05-02T00:35:37;27.85;;;17.25;;
48578;SDS011;34357;51.948;6.132;2023-05-02T00:38:03;29.83;;;17.83;;
48578;SDS011;34357;51.948;6.132;2023-05-02T00:40:29;27.40;;;16.50;;
48578;SDS011;34357;51.948;6.132;2023-05-02T00:42:55;29.90;;;17.58;;
48578;SDS011;34357;51.948;6.132;2023-05-02T00:45:21;25.85;;;16.83;;
48578;SDS011;34357;51.948;6.132;2023-05-02T00:47:48;32.22;;;17.92;;
48578;SDS011;34357;51.948;6.132;2023-05-02T00:50:14;25.98;;;16.60;;
48578;SDS011;34357;51.948;6.132;2023-05-02T00:52:41;24.98;;;17.27;;
48578;SDS011;34357;51.948;6.132;2023-05-02T00:55:07;27.75;;;17.98;;
48578;SDS011;34357;51.948;6.132;2023-05-02T00:57:33;31.48;;;19.20;;
48578;SDS011;34357;51.948;6.132;2023-05-02T00:59:59;30.92;;;18.58;;
48578;SDS011;34357;51.948;6.132;2023-05-02T01:05:01;34.45;;;20.80;;
48578;SDS011;34357;51.948;6.132;2023-05-02T01:13:13;27.45;;;16.90;;
48578;SDS011;34357;51.948;6.132;2023-05-02T01:15:45;26.70;;;15.52;;
48578;SDS011;34357;51.948;6.132;2023-05-02T01:18:13;23.50;;;15.32;;
48578;SDS011;34357;51.948;6.132;2023-05-02T01:20:43;24.48;;;15.57;;
48578;SDS011;34357;51.948;6.132;2023-05-02T01:29:06;28.77;;;16.10;;
48578;SDS011;34357;51.948;6.132;2023-05-02T01:31:38;20.63;;;14.32;;
48578;SDS011;34357;51.948;6.132;2023-05-02T01:34:09;23.67;;;14.27;;
48578;SDS011;34357;51.948;6.132;2023-05-02T01:36:38;25.55;;;14.38;;
48578;SDS011;34357;51.948;6.132;2023-05-02T01:39:12;25.13;;;14.75;;
48578;SDS011;34357;51.948;6.132;2023-05-02T01:41:42;25.55;;;14.43;;
48578;SDS011;34357;51.948;6.132;2023-05-02T01:44:10;24.77;;;15.50;;
48578;SDS011;34357;51.948;6.132;2023-05-02T01:46:39;21.48;;;14.88;;
48578;SDS011;34357;51.948;6.132;2023-05-02T01:49:07;22.35;;;14.15;;
48578;SDS011;34357;51.948;6.132;2023-05-02T01:51:35;25.30;;;15.18;;
48578;SDS011;34357;51.948;6.132;2023-05-02T01:54:08;22.02;;;15.35;;
48578;SDS011;34357;51.948;6.132;2023-05-02T01:56:37;25.50;;;16.08;;
48578;SDS011;34357;51.948;6.132;2023-05-02T01:59:05;25.42;;;15.57;;
48578;SDS011;34357;51.948;6.132;2023-05-02T02:01:35;22.02;;;15.73;;
48578;SDS011;34357;51.948;6.132;2023-05-02T02:04:03;27.60;;;16.35;;
48578;SDS011;34357;51.948;6.132;2023-05-02T02:06:31;25.63;;;16.88;;
48578;SDS011;34357;51.948;6.132;2023-05-02T02:08:57;27.48;;;16.75;;
48578;SDS011;34357;51.948;6.132;2023-05-02T02:11:24;28.15;;;17.70;;
48578;SDS011;34357;51.948;6.132;2023-05-02T02:14:13;28.55;;;16.02;;
48578;SDS011;34357;51.948;6.132;2023-05-02T02:16:43;27.17;;;17.17;;
48578;SDS011;34357;51.948;6.132;2023-05-02T02:19:09;25.35;;;18.27;;
48578;SDS011;34357;51.948;6.132;2023-05-02T02:21:38;34.67;;;20.10;;
48578;SDS011;34357;51.948;6.132;2023-05-02T02:24:06;29.45;;;18.08;;
48578;SDS011;34357;51.948;6.132;2023-05-02T02:26:34;37.03;;;20.83;;
48578;SDS011;34357;51.948;6.132;2023-05-02T02:29:01;32.13;;;18.60;;
48578;SDS011;34357;51.948;6.132;2023-05-02T02:31:31;28.85;;;18.85;;
48578;SDS011;34357;51.948;6.132;2023-05-02T02:33:58;34.25;;;19.08;;
48578;SDS011;34357;51.948;6.132;2023-05-02T02:36:59;28.05;;;18.50;;
48578;SDS011;34357;51.948;6.132;2023-05-02T02:41:59;19.17;;;10.20;;
48578;SDS011;34357;51.948;6.132;2023-05-02T02:44:33;16.20;;;7.35;;
48578;SDS011;34357;51.948;6.132;2023-05-02T02:49:48;12.85;;;5.82;;
48578;SDS011;34357;51.948;6.132;2023-05-02T02:55:47;18.80;;;5.18;;
48578;SDS011;34357;51.948;6.132;2023-05-02T03:03:09;13.27;;;3.75;;
48578;SDS011;34357;51.948;6.132;2023-05-02T03:05:36;11.18;;;3.05;;
48578;SDS011;34357;51.948;6.132;2023-05-02T03:08:02;11.40;;;3.05;;
48578;SDS011;34357;51.948;6.132;2023-05-02T03:10:28;9.98;;;3.00;;
48578;SDS011;34357;51.948;6.132;2023-05-02T03:12:53;11.02;;;3.47;;
48578;SDS011;34357;51.948;6.132;2023-05-02T03:18:10;9.93;;;3.00;;
48578;SDS011;34357;51.948;6.132;2023-05-02T03:20:36;8.75;;;3.00;;
48578;SDS011;34357;51.948;6.132;2023-05-02T03:23:02;6.30;;;2.70;;
48578;SDS011;34357;51.948;6.132;2023-05-02T03:25:28;12.23;;;3.10;;
48578;SDS011;34357;51.948;6.132;2023-05-02T03:27:56;14.15;;;3.38;;
48578;SDS011;34357;51.948;6.132;2023-05-02T03:30:22;11.27;;;2.60;;
48578;SDS011;34357;51.948;6.132;2023-05-02T03:32:49;9.10;;;2.55;;
48578;SDS011;34357;51.948;6.132;2023-05-02T03:35:15;8.13;;;2.55;;
48578;SDS011;34357;51.948;6.132;2023-05-02T03:37:44;5.70;;;2.22;;
48578;SDS011;34357;51.948;6.132;2023-05-02T03:40:10;8.13;;;2.90;;
48578;SDS011;34357;51.948;6.132;2023-05-02T03:42:36;14.40;;;2.85;;
48578;SDS011;34357;51.948;6.132;2023-05-02T03:45:15;10.75;;;3.00;;
48578;SDS011;34357;51.948;6.132;2023-05-02T03:47:40;14.57;;;2.92;;
48578;SDS011;34357;51.948;6.132;2023-05-02T03:50:06;15.13;;;3.17;;
48578;SDS011;34357;51.948;6.132;2023-05-02T03:52:33;15.43;;;3.38;;
48578;SDS011;34357;51.948;6.132;2023-05-02T03:54:59;11.48;;;2.80;;
48578;SDS011;34357;51.948;6.132;2023-05-02T03:57:30;7.28;;;2.13;;
48578;SDS011;34357;51.948;6.132;2023-05-02T03:59:56;10.77;;;3.10;;
48578;SDS011;34357;51.948;6.132;2023-05-02T04:02:26;10.30;;;2.67;;
48578;SDS011;34357;51.948;6.132;2023-05-02T04:04:52;11.88;;;2.70;;
48578;SDS011;34357;51.948;6.132;2023-05-02T04:07:20;13.13;;;2.70;;
48578;SDS011;34357;51.948;6.132;2023-05-02T04:09:54;9.00;;;2.35;;
48578;SDS011;34357;51.948;6.132;2023-05-02T04:12:19;13.25;;;2.85;;
48578;SDS011;34357;51.948;6.132;2023-05-02T04:14:48;9.82;;;2.67;;
48578;SDS011;34357;51.948;6.132;2023-05-02T04:17:15;8.57;;;3.08;;
48578;SDS011;34357;51.948;6.132;2023-05-02T04:19:44;9.43;;;2.78;;
48578;SDS011;34357;51.948;6.132;2023-05-02T04:22:11;10.23;;;2.30;;
48578;SDS011;34357;51.948;6.132;2023-05-02T04:24:41;11.80;;;3.10;;
48578;SDS011;34357;51.948;6.132;2023-05-02T04:27:07;33.65;;;2.80;;
48578;SDS011;34357;51.948;6.132;2023-05-02T04:29:33;11.70;;;2.28;;
48578;SDS011;34357;51.948;6.132;2023-05-02T04:32:00;11.98;;;2.53;;
48578;SDS011;34357;51.948;6.132;2023-05-02T04:34:27;12.05;;;2.42;;
48578;SDS011;34357;51.948;6.132;2023-05-02T04:36:53;13.43;;;2.83;;
48578;SDS011;34357;51.948;6.132;2023-05-02T04:39:21;8.70;;;2.60;;
48578;SDS011;34357;51.948;6.132;2023-05-02T04:41:59;10.45;;;2.42;;
48578;SDS011;34357;51.948;6.132;2023-05-02T04:44:26;15.20;;;2.97;;
48578;SDS011;34357;51.948;6.132;2023-05-02T04:46:54;11.30;;;2.92;;
48578;SDS011;34357;51.948;6.132;2023-05-02T04:49:19;16.85;;;3.60;;
48578;SDS011;34357;51.948;6.132;2023-05-02T04:51:45;11.90;;;3.22;;
48578;SDS011;34357;51.948;6.132;2023-05-02T04:54:12;10.63;;;2.80;;
48578;SDS011;34357;51.948;6.132;2023-05-02T04:56:40;14.52;;;3.58;;
48578;SDS011;34357;51.948;6.132;2023-05-02T04:59:06;13.82;;;3.42;;
48578;SDS011;34357;51.948;6.132;2023-05-02T05:01:33;15.65;;;3.90;;
48578;SDS011;34357;51.948;6.132;2023-05-02T05:04:00;14.35;;;3.40;;
48578;SDS011;34357;51.948;6.132;2023-05-02T05:06:26;14.15;;;3.67;;
48578;SDS011;34357;51.948;6.132;2023-05-02T05:08:53;18.67;;;4.22;;
48578;SDS011;34357;51.948;6.132;2023-05-02T05:11:18;15.88;;;3.80;;
48578;SDS011;34357;51.948;6.132;2023-05-02T05:13:45;12.07;;;3.70;;
48578;SDS011;34357;51.948;6.132;2023-05-02T05:16:12;16.27;;;4.20;;
48578;SDS011;34357;51.948;6.132;2023-05-02T05:18:38;18.10;;;4.28;;
48578;SDS011;34357;51.948;6.132;2023-05-02T05:21:09;17.00;;;3.80;;
48578;SDS011;34357;51.948;6.132;2023-05-02T05:23:36;17.15;;;3.55;;
48578;SDS011;34357;51.948;6.132;2023-05-02T05:26:09;10.98;;;3.83;;
48578;SDS011;34357;51.948;6.132;2023-05-02T05:28:44;23.77;;;4.63;;
48578;SDS011;34357;51.948;6.132;2023-05-02T05:31:11;18.45;;;3.30;;
48578;SDS011;34357;51.948;6.132;2023-05-02T05:33:39;16.92;;;3.40;;
48578;SDS011;34357;51.948;6.132;2023-05-02T05:36:08;17.52;;;3.85;;
48578;SDS011;34357;51.948;6.132;2023-05-02T05:38:35;17.27;;;3.42;;
48578;SDS011;34357;51.948;6.132;2023-05-02T05:41:02;18.23;;;3.55;;
48578;SDS011;34357;51.948;6.132;2023-05-02T05:43:33;22.52;;;4.70;;
48578;SDS011;34357;51.948;6.132;2023-05-02T05:46:00;14.93;;;3.60;;
48578;SDS011;34357;51.948;6.132;2023-05-02T05:48:27;14.15;;;3.58;;
48578;SDS011;34357;51.948;6.132;2023-05-02T05:50:53;20.25;;;4.50;;
48578;SDS011;34357;51.948;6.132;2023-05-02T05:53:19;21.52;;;4.82;;
48578;SDS011;34357;51.948;6.132;2023-05-02T05:55:47;20.23;;;5.63;;
48578;SDS011;34357;51.948;6.132;2023-05-02T05:58:13;16.27;;;4.00;;
48578;SDS011;34357;51.948;6.132;2023-05-02T06:00:41;21.17;;;4.43;;
48578;SDS011;34357;51.948;6.132;2023-05-02T06:03:06;20.27;;;4.70;;
48578;SDS011;34357;51.948;6.132;2023-05-02T06:05:33;21.50;;;4.88;;
48578;SDS011;34357;51.948;6.132;2023-05-02T06:07:59;21.27;;;4.88;;
48578;SDS011;34357;51.948;6.132;2023-05-02T06:10:25;18.67;;;4.18;;
48578;SDS011;34357;51.948;6.132;2023-05-02T06:12:52;15.45;;;3.60;;
48578;SDS011;34357;51.948;6.132;2023-05-02T06:15:22;10.30;;;2.72;;
48578;SDS011;34357;51.948;6.132;2023-05-02T06:17:49;17.08;;;3.35;;
48578;SDS011;34357;51.948;6.132;2023-05-02T06:20:15;18.15;;;4.20;;
48578;SDS011;34357;51.948;6.132;2023-05-02T06:22:41;23.08;;;4.15;;
48578;SDS011;34357;51.948;6.132;2023-05-02T06:25:10;19.65;;;3.80;;
48578;SDS011;34357;51.948;6.132;2023-05-02T06:27:42;18.45;;;4.03;;
48578;SDS011;34357;51.948;6.132;2023-05-02T06:30:08;19.55;;;4.75;;
48578;SDS011;34357;51.948;6.132;2023-05-02T06:32:34;18.08;;;4.78;;
48578;SDS011;34357;51.948;6.132;2023-05-02T06:34:59;17.20;;;4.00;;
48578;SDS011;34357;51.948;6.132;2023-05-02T06:37:25;16.25;;;4.20;;
48578;SDS011;34357;51.948;6.132;2023-05-02T06:39:51;14.18;;;3.58;;
48578;SDS011;34357;51.948;6.132;2023-05-02T06:42:17;16.58;;;4.38;;
48578;SDS011;34357;51.948;6.132;2023-05-02T06:44:42;18.33;;;4.05;;
48578;SDS011;34357;51.948;6.132;2023-05-02T06:47:08;19.20;;;3.95;;
48578;SDS011;34357;51.948;6.132;2023-05-02T06:49:34;19.25;;;4.07;;
48578;SDS011;34357;51.948;6.132;2023-05-02T06:51:59;21.15;;;4.35;;
48578;SDS011;34357;51.948;6.132;2023-05-02T06:54:25;27.15;;;4.95;;
48578;SDS011;34357;51.948;6.132;2023-05-02T06:56:51;22.38;;;4.90;;
48578;SDS011;34357;51.948;6.132;2023-05-02T06:59:17;23.90;;;4.30;;
48578;SDS011;34357;51.948;6.132;2023-05-02T07:01:43;21.85;;;4.65;;
48578;SDS011;34357;51.948;6.132;2023-05-02T07:04:09;20.38;;;4.70;;
48578;SDS011;34357;51.948;6.132;2023-05-02T07:06:35;23.80;;;4.63;;
48578;SDS011;34357;51.948;6.132;2023-05-02T07:09:00;16.17;;;4.40;;
48578;SDS011;34357;51.948;6.132;2023-05-02T07:11:26;18.45;;;4.28;;
48578;SDS011;34357;51.948;6.132;2023-05-02T07:13:52;19.75;;;4.32;;
48578;SDS011;34357;51.948;6.132;2023-05-02T07:16:18;19.75;;;3.97;;
48578;SDS011;34357;51.948;6.132;2023-05-02T07:18:44;19.30;;;4.50;;
48578;SDS011;34357;51.948;6.132;2023-05-02T07:21:10;21.80;;;4.25;;
48578;SDS011;34357;51.948;6.132;2023-05-02T07:23:36;15.13;;;3.25;;
48578;SDS011;34357;51.948;6.132;2023-05-02T07:26:02;14.00;;;3.03;;
48578;SDS011;34357;51.948;6.132;2023-05-02T07:28:29;17.77;;;3.20;;
48578;SDS011;34357;51.948;6.132;2023-05-02T07:30:55;12.18;;;3.00;;
48578;SDS011;34357;51.948;6.132;2023-05-02T07:33:21;16.80;;;3.25;;
48578;SDS011;34357;51.948;6.132;2023-05-02T07:35:48;14.10;;;3.10;;
48578;SDS011;34357;51.948;6.132;2023-05-02T07:38:14;12.82;;;2.95;;
48578;SDS011;34357;51.948;6.132;2023-05-02T07:40:40;15.05;;;2.78;;
48578;SDS011;34357;51.948;6.132;2023-05-02T07:43:05;9.27;;;2.72;;
48578;SDS011;34357;51.948;6.132;2023-05-02T07:45:31;16.98;;;3.15;;
48578;SDS011;34357;51.948;6.132;2023-05-02T07:47:58;10.50;;;2.60;;
48578;SDS011;34357;51.948;6.132;2023-05-02T07:50:23;12.07;;;2.67;;
48578;SDS011;34357;51.948;6.132;2023-05-02T07:52:50;15.80;;;3.58;;
48578;SDS011;34357;51.948;6.132;2023-05-02T07:55:15;10.15;;;2.65;;
48578;SDS011;34357;51.948;6.132;2023-05-02T07:57:41;11.15;;;2.47;;
48578;SDS011;34357;51.948;6.132;2023-05-02T08:00:07;11.63;;;2.30;;
48578;SDS011;34357;51.948;6.132;2023-05-02T08:02:40;15.60;;;2.60;;
48578;SDS011;34357;51.948;6.132;2023-05-02T08:05:06;16.95;;;3.20;;
48578;SDS011;34357;51.948;6.132;2023-05-02T08:07:32;17.40;;;3.17;;
48578;SDS011;34357;51.948;6.132;2023-05-02T08:09:59;9.35;;;3.20;;
48578;SDS011;34357;51.948;6.132;2023-05-02T08:12:28;11.70;;;2.75;;
48578;SDS011;34357;51.948;6.132;2023-05-02T08:14:54;9.73;;;2.25;;
48578;SDS011;34357;51.948;6.132;2023-05-02T08:17:20;9.30;;;2.25;;
48578;SDS011;34357;51.948;6.132;2023-05-02T08:19:45;7.95;;;2.13;;
48578;SDS011;34357;51.948;6.132;2023-05-02T08:22:11;11.30;;;2.50;;
48578;SDS011;34357;51.948;6.132;2023-05-02T08:24:37;10.15;;;2.40;;
48578;SDS011;34357;51.948;6.132;2023-05-02T08:27:03;10.32;;;2.58;;
48578;SDS011;34357;51.948;6.132;2023-05-02T08:29:29;7.05;;;1.77;;
48578;SDS011;34357;51.948;6.132;2023-05-02T08:31:55;9.32;;;2.17;;
48578;SDS011;34357;51.948;6.132;2023-05-02T08:34:21;11.70;;;2.55;;
48578;SDS011;34357;51.948;6.132;2023-05-02T08:36:47;12.40;;;1.85;;
48578;SDS011;34357;51.948;6.132;2023-05-02T08:39:12;9.02;;;2.55;;
48578;SDS011;34357;51.948;6.132;2023-05-02T08:41:38;12.23;;;2.28;;
48578;SDS011;34357;51.948;6.132;2023-05-02T08:44:04;9.52;;;2.65;;
48578;SDS011;34357;51.948;6.132;2023-05-02T08:46:34;7.40;;;1.88;;
48578;SDS011;34357;51.948;6.132;2023-05-02T08:49:00;10.65;;;1.52;;
48578;SDS011;34357;51.948;6.132;2023-05-02T08:51:28;8.15;;;2.10;;
48578;SDS011;34357;51.948;6.132;2023-05-02T08:53:57;7.93;;;1.95;;
48578;SDS011;34357;51.948;6.132;2023-05-02T08:56:23;8.55;;;2.28;;
48578;SDS011;34357;51.948;6.132;2023-05-02T08:58:50;6.68;;;2.00;;
48578;SDS011;34357;51.948;6.132;2023-05-02T09:01:16;9.38;;;1.92;;
48578;SDS011;34357;51.948;6.132;2023-05-02T09:03:45;7.53;;;2.28;;
48578;SDS011;34357;51.948;6.132;2023-05-02T09:06:12;11.55;;;2.20;;
48578;SDS011;34357;51.948;6.132;2023-05-02T09:08:38;7.70;;;2.05;;
48578;SDS011;34357;51.948;6.132;2023-05-02T09:11:05;7.78;;;2.10;;
48578;SDS011;34357;51.948;6.132;2023-05-02T09:16:01;6.65;;;1.80;;
48578;SDS011;34357;51.948;6.132;2023-05-02T09:18:32;10.20;;;2.58;;
48578;SDS011;34357;51.948;6.132;2023-05-02T09:21:00;8.10;;;2.13;;
48578;SDS011;34357;51.948;6.132;2023-05-02T09:26:26;9.05;;;2.15;;
48578;SDS011;34357;51.948;6.132;2023-05-02T09:29:03;7.45;;;1.73;;
48578;SDS011;34357;51.948;6.132;2023-05-02T09:34:19;9.90;;;1.98;;
48578;SDS011;34357;51.948;6.132;2023-05-02T09:36:45;9.10;;;2.00;;
48578;SDS011;34357;51.948;6.132;2023-05-02T09:41:43;9.93;;;2.03;;
48578;SDS011;34357;51.948;6.132;2023-05-02T09:44:12;5.05;;;2.00;;
48578;SDS011;34357;51.948;6.132;2023-05-02T09:46:43;7.82;;;2.20;;
48578;SDS011;34357;51.948;6.132;2023-05-02T09:49:10;7.82;;;2.08;;
48578;SDS011;34357;51.948;6.132;2023-05-02T09:51:36;7.10;;;1.85;;
48578;SDS011;34357;51.948;6.132;2023-05-02T09:54:02;7.95;;;2.17;;
48578;SDS011;34357;51.948;6.132;2023-05-02T09:56:28;8.23;;;1.67;;
48578;SDS011;34357;51.948;6.132;2023-05-02T10:01:53;8.98;;;2.47;;
48578;SDS011;34357;51.948;6.132;2023-05-02T10:06:46;14.07;;;2.47;;
48578;SDS011;34357;51.948;6.132;2023-05-02T10:09:16;4.63;;;2.00;;
48578;SDS011;34357;51.948;6.132;2023-05-02T10:11:47;8.60;;;1.73;;
48578;SDS011;34357;51.948;6.132;2023-05-02T10:14:16;7.93;;;2.00;;
48578;SDS011;34357;51.948;6.132;2023-05-02T10:19:21;9.15;;;1.92;;
48578;SDS011;34357;51.948;6.132;2023-05-02T10:21:51;5.75;;;1.70;;
48578;SDS011;34357;51.948;6.132;2023-05-02T10:24:21;5.10;;;1.73;;
48578;SDS011;34357;51.948;6.132;2023-05-02T10:26:48;6.30;;;2.00;;
48578;SDS011;34357;51.948;6.132;2023-05-02T10:29:15;7.22;;;2.10;;
48578;SDS011;34357;51.948;6.132;2023-05-02T10:31:44;10.30;;;2.38;;
48578;SDS011;34357;51.948;6.132;2023-05-02T10:34:11;4.60;;;1.75;;
48578;SDS011;34357;51.948;6.132;2023-05-02T10:36:37;9.40;;;2.17;;
48578;SDS011;34357;51.948;6.132;2023-05-02T10:39:06;18.83;;;2.50;;
48578;SDS011;34357;51.948;6.132;2023-05-02T10:41:32;10.23;;;2.08;;
48578;SDS011;34357;51.948;6.132;2023-05-02T10:43:59;6.25;;;2.10;;
48578;SDS011;34357;51.948;6.132;2023-05-02T10:46:32;7.60;;;2.00;;
48578;SDS011;34357;51.948;6.132;2023-05-02T10:51:31;12.60;;;2.40;;
48578;SDS011;34357;51.948;6.132;2023-05-02T11:05:03;8.40;;;2.38;;
48578;SDS011;34357;51.948;6.132;2023-05-02T11:07:30;9.10;;;2.58;;
48578;SDS011;34357;51.948;6.132;2023-05-02T11:12:53;11.65;;;2.25;;
48578;SDS011;34357;51.948;6.132;2023-05-02T11:20:37;9.18;;;3.10;;
48578;SDS011;34357;51.948;6.132;2023-05-02T11:25:43;10.43;;;2.35;;
48578;SDS011;34357;51.948;6.132;2023-05-02T11:31:01;11.73;;;2.33;;
48578;SDS011;34357;51.948;6.132;2023-05-02T11:33:28;8.70;;;2.40;;
48578;SDS011;34357;51.948;6.132;2023-05-02T11:35:54;10.95;;;3.03;;
48578;SDS011;34357;51.948;6.132;2023-05-02T11:38:22;11.40;;;2.90;;
48578;SDS011;34357;51.948;6.132;2023-05-02T11:40:52;15.75;;;3.15;;
48578;SDS011;34357;51.948;6.132;2023-05-02T11:43:20;9.48;;;2.75;;
48578;SDS011;34357;51.948;6.132;2023-05-02T11:45:46;12.30;;;2.85;;
48578;SDS011;34357;51.948;6.132;2023-05-02T11:48:14;13.77;;;3.40;;
48578;SDS011;34357;51.948;6.132;2023-05-02T11:53:10;11.00;;;2.58;;
48578;SDS011;34357;51.948;6.132;2023-05-02T11:55:43;12.05;;;3.13;;
48578;SDS011;34357;51.948;6.132;2023-05-02T11:58:13;10.55;;;2.88;;
48578;SDS011;34357;51.948;6.132;2023-05-02T12:00:40;10.55;;;2.80;;
48578;SDS011;34357;51.948;6.132;2023-05-02T12:05:50;9.50;;;3.17;;
48578;SDS011;34357;51.948;6.132;2023-05-02T12:08:20;6.28;;;2.42;;
48578;SDS011;34357;51.948;6.132;2023-05-02T12:10:48;9.23;;;4.28;;
48578;SDS011;34357;51.948;6.132;2023-05-02T12:13:16;10.18;;;2.67;;
48578;SDS011;34357;51.948;6.132;2023-05-02T12:15:42;11.68;;;3.00;;
48578;SDS011;34357;51.948;6.132;2023-05-02T12:18:09;11.25;;;3.40;;
48578;SDS011;34357;51.948;6.132;2023-05-02T12:20:35;10.23;;;3.28;;
48578;SDS011;34357;51.948;6.132;2023-05-02T12:23:03;8.32;;;3.05;;
48578;SDS011;34357;51.948;6.132;2023-05-02T12:25:31;9.07;;;3.33;;
48578;SDS011;34357;51.948;6.132;2023-05-02T12:28:01;13.32;;;3.25;;
48578;SDS011;34357;51.948;6.132;2023-05-02T12:30:27;10.68;;;2.70;;
48578;SDS011;34357;51.948;6.132;2023-05-02T12:33:00;11.90;;;3.60;;
48578;SDS011;34357;51.948;6.132;2023-05-02T12:35:27;11.32;;;3.47;;
48578;SDS011;34357;51.948;6.132;2023-05-02T12:37:54;9.18;;;3.00;;
48578;SDS011;34357;51.948;6.132;2023-05-02T12:40:47;8.07;;;2.97;;
48578;SDS011;34357;51.948;6.132;2023-05-02T12:43:15;10.93;;;3.03;;
48578;SDS011;34357;51.948;6.132;2023-05-02T12:45:40;14.48;;;3.47;;
48578;SDS011;34357;51.948;6.132;2023-05-02T12:48:26;12.10;;;3.72;;
48578;SDS011;34357;51.948;6.132;2023-05-02T12:50:53;7.32;;;2.72;;
48578;SDS011;34357;51.948;6.132;2023-05-02T12:53:38;7.88;;;3.03;;
48578;SDS011;34357;51.948;6.132;2023-05-02T12:56:05;9.07;;;3.00;;
48578;SDS011;34357;51.948;6.132;2023-05-02T12:58:42;6.40;;;2.75;;
48578;SDS011;34357;51.948;6.132;2023-05-02T13:01:09;10.27;;;3.22;;
48578;SDS011;34357;51.948;6.132;2023-05-02T13:03:35;12.05;;;2.92;;
48578;SDS011;34357;51.948;6.132;2023-05-02T13:06:01;11.40;;;3.40;;
48578;SDS011;34357;51.948;6.132;2023-05-02T13:08:26;10.40;;;3.33;;
48578;SDS011;34357;51.948;6.132;2023-05-02T13:10:52;7.75;;;2.95;;
48578;SDS011;34357;51.948;6.132;2023-05-02T13:13:18;12.50;;;3.47;;
48578;SDS011;34357;51.948;6.132;2023-05-02T13:15:44;9.82;;;3.55;;
48578;SDS011;34357;51.948;6.132;2023-05-02T13:18:09;17.23;;;3.58;;
48578;SDS011;34357;51.948;6.132;2023-05-02T13:20:35;15.85;;;3.58;;
48578;SDS011;34357;51.948;6.132;2023-05-02T13:23:01;10.27;;;3.30;;
48578;SDS011;34357;51.948;6.132;2023-05-02T13:25:27;10.00;;;3.47;;
48578;SDS011;34357;51.948;6.132;2023-05-02T13:27:52;13.85;;;3.28;;
48578;SDS011;34357;51.948;6.132;2023-05-02T13:30:18;8.65;;;3.35;;
48578;SDS011;34357;51.948;6.132;2023-05-02T13:32:43;13.23;;;4.20;;
48578;SDS011;34357;51.948;6.132;2023-05-02T13:35:09;12.77;;;3.47;;
48578;SDS011;34357;51.948;6.132;2023-05-02T13:37:38;10.57;;;3.35;;
48578;SDS011;34357;51.948;6.132;2023-05-02T13:40:05;12.80;;;3.42;;
48578;SDS011;34357;51.948;6.132;2023-05-02T13:42:32;13.38;;;3.78;;
48578;SDS011;34357;51.948;6.132;2023-05-02T13:44:57;8.13;;;3.50;;
48578;SDS011;34357;51.948;6.132;2023-05-02T13:47:23;12.80;;;3.35;;
48578;SDS011;34357;51.948;6.132;2023-05-02T13:49:49;9.20;;;3.83;;
48578;SDS011;34357;51.948;6.132;2023-05-02T13:52:15;13.43;;;3.78;;
48578;SDS011;34357;51.948;6.132;2023-05-02T13:54:40;9.02;;;3.65;;
48578;SDS011;34357;51.948;6.132;2023-05-02T13:57:06;14.25;;;3.92;;
48578;SDS011;34357;51.948;6.132;2023-05-02T13:59:32;13.90;;;3.85;;
48578;SDS011;34357;51.948;6.132;2023-05-02T14:01:58;11.60;;;3.83;;
48578;SDS011;34357;51.948;6.132;2023-05-02T14:04:23;11.20;;;3.55;;
48578;SDS011;34357;51.948;6.132;2023-05-02T14:06:49;14.18;;;3.65;;
48578;SDS011;34357;51.948;6.132;2023-05-02T14:09:15;16.02;;;3.72;;
48578;SDS011;34357;51.948;6.132;2023-05-02T14:11:41;16.33;;;4.15;;
48578;SDS011;34357;51.948;6.132;2023-05-02T14:14:08;11.85;;;3.60;;
48578;SDS011;34357;51.948;6.132;2023-05-02T14:16:36;13.57;;;4.03;;
48578;SDS011;34357;51.948;6.132;2023-05-02T14:19:03;13.70;;;3.88;;
48578;SDS011;34357;51.948;6.132;2023-05-02T14:21:29;12.95;;;4.13;;
48578;SDS011;34357;51.948;6.132;2023-05-02T14:23:55;8.77;;;3.30;;
48578;SDS011;34357;51.948;6.132;2023-05-02T14:26:21;9.18;;;3.70;;
48578;SDS011;34357;51.948;6.132;2023-05-02T14:28:47;11.23;;;3.92;;
48578;SDS011;34357;51.948;6.132;2023-05-02T14:31:13;12.35;;;3.42;;
48578;SDS011;34357;51.948;6.132;2023-05-02T14:33:39;9.30;;;3.30;;
48578;SDS011;34357;51.948;6.132;2023-05-02T14:36:05;16.33;;;3.40;;
48578;SDS011;34357;51.948;6.132;2023-05-02T14:38:31;13.45;;;3.95;;
48578;SDS011;34357;51.948;6.132;2023-05-02T14:40:57;10.52;;;3.33;;
48578;SDS011;34357;51.948;6.132;2023-05-02T14:43:22;8.48;;;2.97;;
48578;SDS011;34357;51.948;6.132;2023-05-02T14:45:48;10.00;;;3.20;;
48578;SDS011;34357;51.948;6.132;2023-05-02T14:48:14;8.02;;;3.50;;
48578;SDS011;34357;51.948;6.132;2023-05-02T14:50:41;11.40;;;3.47;;
48578;SDS011;34357;51.948;6.132;2023-05-02T14:53:07;10.95;;;3.13;;
48578;SDS011;34357;51.948;6.132;2023-05-02T14:55:37;10.52;;;2.85;;
48578;SDS011;34357;51.948;6.132;2023-05-02T14:58:07;11.20;;;3.13;;
48578;SDS011;34357;51.948;6.132;2023-05-02T15:00:34;11.88;;;3.58;;
48578;SDS011;34357;51.948;6.132;2023-05-02T15:03:06;7.97;;;3.33;;
48578;SDS011;34357;51.948;6.132;2023-05-02T15:05:34;13.05;;;3.58;;
48578;SDS011;34357;51.948;6.132;2023-05-02T15:08:00;10.23;;;3.17;;
48578;SDS011;34357;51.948;6.132;2023-05-02T15:10:26;10.20;;;3.75;;
48578;SDS011;34357;51.948;6.132;2023-05-02T15:12:52;9.75;;;3.33;;
48578;SDS011;34357;51.948;6.132;2023-05-02T15:15:18;8.40;;;2.90;;
48578;SDS011;34357;51.948;6.132;2023-05-02T15:17:49;9.43;;;2.97;;
48578;SDS011;34357;51.948;6.132;2023-05-02T15:20:30;8.80;;;3.40;;
48578;SDS011;34357;51.948;6.132;2023-05-02T15:22:56;8.68;;;2.78;;
48578;SDS011;34357;51.948;6.132;2023-05-02T15:25:27;10.43;;;3.45;;
48578;SDS011;34357;51.948;6.132;2023-05-02T15:27:53;8.32;;;2.80;;
48578;SDS011;34357;51.948;6.132;2023-05-02T15:30:19;10.68;;;3.03;;
48578;SDS011;34357;51.948;6.132;2023-05-02T15:32:48;10.95;;;3.05;;
48578;SDS011;34357;51.948;6.132;2023-05-02T15:35:15;13.65;;;3.58;;
48578;SDS011;34357;51.948;6.132;2023-05-02T15:37:41;9.10;;;3.08;;
48578;SDS011;34357;51.948;6.132;2023-05-02T15:40:07;11.85;;;2.88;;
48578;SDS011;34357;51.948;6.132;2023-05-02T15:42:33;10.57;;;2.55;;
48578;SDS011;34357;51.948;6.132;2023-05-02T15:45:01;7.60;;;2.70;;
48578;SDS011;34357;51.948;6.132;2023-05-02T15:47:26;9.20;;;2.65;;
48578;SDS011;34357;51.948;6.132;2023-05-02T15:49:52;8.63;;;2.47;;
48578;SDS011;34357;51.948;6.132;2023-05-02T15:52:19;9.48;;;2.78;;
48578;SDS011;34357;51.948;6.132;2023-05-02T15:54:45;6.45;;;2.55;;
48578;SDS011;34357;51.948;6.132;2023-05-02T15:57:11;8.05;;;2.58;;
48578;SDS011;34357;51.948;6.132;2023-05-02T15:59:37;6.10;;;2.05;;